sensor_id;sensor_type;location;lat;lon;timestamp;P1;durP1;ratioP1;P2;durP2;ratioP2
595;SDS011;19946;49.306;11.350;2023-04-01T00:02:10;1.60;;;1.60;;
595;SDS011;19946;49.306;11.350;2023-04-01T00:05:11;1.10;;;1.10;;
595;SDS011;19946;49.306;11.350;2023-04-01T00:08:11;1.20;;;1.20;;
595;SDS011;19946;49.306;11.350;2023-04-01T00:11:12;1.80;;;1.80;;
595;SDS011;19946;49.306;11.350;2023-04-01T00:14:12;1.63;;;1.63;;
595;SDS011;19946;49.306;11.350;2023-04-01T00:17:12;1.30;;;1.30;;
595;SDS011;19946;49.306;11.350;2023-04-01T00:20:13;1.40;;;1.40;;
595;SDS011;19946;49.306;11.350;2023-04-01T00:23:14;1.70;;;1.70;;
595;SDS011;19946;49.306;11.350;2023-04-01T00:26:15;1.20;;;1.20;;
595;SDS011;19946;49.306;11.350;2023-04-01T00:29:19;1.97;;;1.97;;
595;SDS011;19946;49.306;11.350;2023-04-01T00:32:19;1.70;;;1.70;;
595;SDS011;19946;49.306;11.350;2023-04-01T00:35:19;1.70;;;1.70;;
595;SDS011;19946;49.306;11.350;2023-04-01T00:38:20;1.23;;;1.23;;
595;SDS011;19946;49.306;11.350;2023-04-01T00:41:20;1.60;;;1.60;;
595;SDS011;19946;49.306;11.350;2023-04-01T00:44:22;1.20;;;1.20;;
595;SDS011;19946;49.306;11.350;2023-04-01T00:47:24;1.60;;;1.60;;
595;SDS011;19946;49.306;11.350;2023-04-01T00:50:26;1.80;;;1.80;;
595;SDS011;19946;49.306;11.350;2023-04-01T00:53:29;1.10;;;1.10;;
595;SDS011;19946;49.306;11.350;2023-04-01T00:56:32;1.60;;;1.60;;
595;SDS011;19946;49.306;11.350;2023-04-01T00:59:37;2.33;;;2.33;;
595;SDS011;19946;49.306;11.350;2023-04-01T01:02:43;1.50;;;1.50;;
595;SDS011;19946;49.306;11.350;2023-04-01T01:05:50;1.40;;;1.40;;
595;SDS011;19946;49.306;11.350;2023-04-01T01:09:06;2.10;;;2.10;;
595;SDS011;19946;49.306;11.350;2023-04-01T01:12:22;1.43;;;1.43;;
595;SDS011;19946;49.306;11.350;2023-04-01T01:15:31;1.50;;;1.50;;
595;SDS011;19946;49.306;11.350;2023-04-01T01:18:38;1.20;;;1.20;;
595;SDS011;19946;49.306;11.350;2023-04-01T01:21:54;1.30;;;1.30;;
595;SDS011;19946;49.306;11.350;2023-04-01T01:25:11;1.40;;;1.40;;
595;SDS011;19946;49.306;11.350;2023-04-01T01:28:55;1.30;;;1.30;;
595;SDS011;19946;49.306;11.350;2023-04-01T01:32:20;0.93;;;0.93;;
595;SDS011;19946;49.306;11.350;2023-04-01T01:35:43;1.60;;;1.60;;
595;SDS011;19946;49.306;11.350;2023-04-01T01:38:52;1.60;;;1.60;;
595;SDS011;19946;49.306;11.350;2023-04-01T01:41:55;1.00;;;1.00;;
595;SDS011;19946;49.306;11.350;2023-04-01T01:45:00;1.33;;;1.33;;
595;SDS011;19946;49.306;11.350;2023-04-01T01:48:03;1.30;;;1.30;;
595;SDS011;19946;49.306;11.350;2023-04-01T01:51:06;1.40;;;1.40;;
595;SDS011;19946;49.306;11.350;2023-04-01T01:54:06;1.30;;;1.30;;
595;SDS011;19946;49.306;11.350;2023-04-01T01:57:11;1.30;;;1.30;;
595;SDS011;19946;49.306;11.350;2023-04-01T02:00:15;1.70;;;1.70;;
595;SDS011;19946;49.306;11.350;2023-04-01T02:03:19;1.30;;;1.30;;
595;SDS011;19946;49.306;11.350;2023-04-01T02:06:23;1.13;;;1.13;;
595;SDS011;19946;49.306;11.350;2023-04-01T02:09:25;1.30;;;1.30;;
595;SDS011;19946;49.306;11.350;2023-04-01T02:12:26;0.77;;;0.77;;
595;SDS011;19946;49.306;11.350;2023-04-01T02:15:28;1.00;;;1.00;;
595;SDS011;19946;49.306;11.350;2023-04-01T02:18:34;1.20;;;1.20;;
595;SDS011;19946;49.306;11.350;2023-04-01T02:21:39;1.50;;;1.50;;
595;SDS011;19946;49.306;11.350;2023-04-01T02:24:41;1.60;;;1.60;;
595;SDS011;19946;49.306;11.350;2023-04-01T02:27:44;2.00;;;2.00;;
595;SDS011;19946;49.306;11.350;2023-04-01T02:30:46;1.80;;;1.80;;
595;SDS011;19946;49.306;11.350;2023-04-01T02:33:48;1.40;;;1.40;;
595;SDS011;19946;49.306;11.350;2023-04-01T02:36:49;1.60;;;1.60;;
595;SDS011;19946;49.306;11.350;2023-04-01T02:39:50;1.83;;;1.83;;
595;SDS011;19946;49.306;11.350;2023-04-01T02:42:50;1.80;;;1.80;;
595;SDS011;19946;49.306;11.350;2023-04-01T02:45:51;1.50;;;1.50;;
595;SDS011;19946;49.306;11.350;2023-04-01T02:48:51;1.57;;;1.57;;
595;SDS011;19946;49.306;11.350;2023-04-01T02:51:52;1.57;;;1.57;;
595;SDS011;19946;49.306;11.350;2023-04-01T02:54:52;1.90;;;1.90;;
595;SDS011;19946;49.306;11.350;2023-04-01T02:57:53;1.63;;;1.63;;
595;SDS011;19946;49.306;11.350;2023-04-01T03:00:53;1.30;;;1.30;;
595;SDS011;19946;49.306;11.350;2023-04-01T03:03:54;1.20;;;1.20;;
595;SDS011;19946;49.306;11.350;2023-04-01T03:06:54;1.30;;;1.30;;
595;SDS011;19946;49.306;11.350;2023-04-01T03:09:55;1.50;;;1.50;;
595;SDS011;19946;49.306;11.350;2023-04-01T03:12:55;1.27;;;1.27;;
595;SDS011;19946;49.306;11.350;2023-04-01T03:15:56;1.20;;;1.20;;
595;SDS011;19946;49.306;11.350;2023-04-01T03:18:56;1.20;;;1.20;;
595;SDS011;19946;49.306;11.350;2023-04-01T03:21:59;1.50;;;1.50;;
595;SDS011;19946;49.306;11.350;2023-04-01T03:24:59;1.50;;;1.50;;
595;SDS011;19946;49.306;11.350;2023-04-01T03:27:59;1.10;;;1.10;;
595;SDS011;19946;49.306;11.350;2023-04-01T03:31:00;1.40;;;1.40;;
595;SDS011;19946;49.306;11.350;2023-04-01T03:34:02;1.60;;;1.60;;
595;SDS011;19946;49.306;11.350;2023-04-01T03:37:02;1.60;;;1.60;;
595;SDS011;19946;49.306;11.350;2023-04-01T03:40:03;1.40;;;1.40;;
595;SDS011;19946;49.306;11.350;2023-04-01T03:43:03;0.90;;;0.90;;
595;SDS011;19946;49.306;11.350;2023-04-01T03:46:08;1.10;;;1.10;;
595;SDS011;19946;49.306;11.350;2023-04-01T03:49:09;1.80;;;1.80;;
595;SDS011;19946;49.306;11.350;2023-04-01T03:52:12;1.40;;;1.40;;
595;SDS011;19946;49.306;11.350;2023-04-01T03:55:13;1.30;;;1.30;;
595;SDS011;19946;49.306;11.350;2023-04-01T03:58:14;1.43;;;1.43;;
595;SDS011;19946;49.306;11.350;2023-04-01T04:01:16;1.70;;;1.70;;
595;SDS011;19946;49.306;11.350;2023-04-01T04:04:19;1.40;;;1.40;;
595;SDS011;19946;49.306;11.350;2023-04-01T04:07:19;1.70;;;1.70;;
595;SDS011;19946;49.306;11.350;2023-04-01T04:10:38;1.10;;;1.10;;
595;SDS011;19946;49.306;11.350;2023-04-01T04:13:40;1.00;;;1.00;;
595;SDS011;19946;49.306;11.350;2023-04-01T04:16:41;1.30;;;1.30;;
595;SDS011;19946;49.306;11.350;2023-04-01T04:19:41;1.00;;;1.00;;
595;SDS011;19946;49.306;11.350;2023-04-01T04:22:42;1.00;;;1.00;;
595;SDS011;19946;49.306;11.350;2023-04-01T04:25:53;1.13;;;1.13;;
595;SDS011;19946;49.306;11.350;2023-04-01T04:28:58;2.10;;;2.10;;
595;SDS011;19946;49.306;11.350;2023-04-01T04:31:59;1.80;;;1.80;;
595;SDS011;19946;49.306;11.350;2023-04-01T04:35:00;1.40;;;1.40;;
595;SDS011;19946;49.306;11.350;2023-04-01T04:38:00;1.40;;;1.40;;
595;SDS011;19946;49.306;11.350;2023-04-01T04:41:00;1.50;;;1.50;;
595;SDS011;19946;49.306;11.350;2023-04-01T04:44:01;1.60;;;1.60;;
595;SDS011;19946;49.306;11.350;2023-04-01T04:47:01;1.10;;;1.10;;
595;SDS011;19946;49.306;11.350;2023-04-01T04:50:02;1.10;;;1.10;;
595;SDS011;19946;49.306;11.350;2023-04-01T04:53:02;1.20;;;1.20;;
595;SDS011;19946;49.306;11.350;2023-04-01T04:56:05;0.70;;;0.70;;
595;SDS011;19946;49.306;11.350;2023-04-01T04:59:12;0.97;;;0.97;;
595;SDS011;19946;49.306;11.350;2023-04-01T05:02:19;0.80;;;0.80;;
595;SDS011;19946;49.306;11.350;2023-04-01T05:05:20;0.70;;;0.70;;
595;SDS011;19946;49.306;11.350;2023-04-01T05:08:21;1.10;;;1.10;;
595;SDS011;19946;49.306;11.350;2023-04-01T05:11:21;1.00;;;1.00;;
595;SDS011;19946;49.306;11.350;2023-04-01T05:14:23;0.90;;;0.90;;
595;SDS011;19946;49.306;11.350;2023-04-01T05:17:31;1.20;;;1.20;;
595;SDS011;19946;49.306;11.350;2023-04-01T05:20:31;1.10;;;1.10;;
595;SDS011;19946;49.306;11.350;2023-04-01T05:23:32;1.10;;;1.10;;
595;SDS011;19946;49.306;11.350;2023-04-01T05:26:33;1.00;;;1.00;;
595;SDS011;19946;49.306;11.350;2023-04-01T05:29:33;0.80;;;0.80;;
595;SDS011;19946;49.306;11.350;2023-04-01T05:32:39;1.00;;;1.00;;
595;SDS011;19946;49.306;11.350;2023-04-01T05:35:40;0.80;;;0.80;;
595;SDS011;19946;49.306;11.350;2023-04-01T05:38:41;0.90;;;0.90;;
595;SDS011;19946;49.306;11.350;2023-04-01T05:41:45;1.10;;;1.10;;
595;SDS011;19946;49.306;11.350;2023-04-01T05:44:45;1.27;;;1.27;;
595;SDS011;19946;49.306;11.350;2023-04-01T05:48:21;1.40;;;1.40;;
595;SDS011;19946;49.306;11.350;2023-04-01T05:51:21;1.00;;;1.00;;
595;SDS011;19946;49.306;11.350;2023-04-01T05:54:22;1.10;;;1.10;;
595;SDS011;19946;49.306;11.350;2023-04-01T05:57:22;1.10;;;1.10;;
595;SDS011;19946;49.306;11.350;2023-04-01T06:00:23;1.20;;;1.20;;
595;SDS011;19946;49.306;11.350;2023-04-01T06:03:24;1.50;;;1.50;;
595;SDS011;19946;49.306;11.350;2023-04-01T06:06:26;1.20;;;1.20;;
595;SDS011;19946;49.306;11.350;2023-04-01T06:09:32;1.10;;;1.10;;
595;SDS011;19946;49.306;11.350;2023-04-01T06:12:36;1.00;;;1.00;;
595;SDS011;19946;49.306;11.350;2023-04-01T06:16:12;1.10;;;1.10;;
595;SDS011;19946;49.306;11.350;2023-04-01T06:27:04;1.27;;;1.27;;
595;SDS011;19946;49.306;11.350;2023-04-01T06:30:38;1.10;;;1.10;;
595;SDS011;19946;49.306;11.350;2023-04-01T06:37:22;1.07;;;1.07;;
595;SDS011;19946;49.306;11.350;2023-04-01T06:43:59;1.00;;;1.00;;
595;SDS011;19946;49.306;11.350;2023-04-01T06:47:36;1.00;;;1.00;;
595;SDS011;19946;49.306;11.350;2023-04-01T06:51:27;1.10;;;1.10;;
595;SDS011;19946;49.306;11.350;2023-04-01T07:05:25;1.00;;;1.00;;
595;SDS011;19946;49.306;11.350;2023-04-01T07:08:31;0.90;;;0.90;;
595;SDS011;19946;49.306;11.350;2023-04-01T07:11:37;1.00;;;1.00;;
595;SDS011;19946;49.306;11.350;2023-04-01T07:14:58;1.10;;;1.10;;
595;SDS011;19946;49.306;11.350;2023-04-01T07:18:29;0.97;;;0.97;;
595;SDS011;19946;49.306;11.350;2023-04-01T07:21:49;0.80;;;0.80;;
595;SDS011;19946;49.306;11.350;2023-04-01T07:25:07;0.80;;;0.80;;
595;SDS011;19946;49.306;11.350;2023-04-01T07:28:14;1.10;;;1.10;;
595;SDS011;19946;49.306;11.350;2023-04-01T07:31:45;1.00;;;1.00;;
595;SDS011;19946;49.306;11.350;2023-04-01T07:35:17;0.80;;;0.80;;
595;SDS011;19946;49.306;11.350;2023-04-01T07:42:48;0.80;;;0.80;;
595;SDS011;19946;49.306;11.350;2023-04-01T07:56:05;1.00;;;1.00;;
595;SDS011;19946;49.306;11.350;2023-04-01T08:02:47;1.10;;;1.10;;
595;SDS011;19946;49.306;11.350;2023-04-01T08:09:31;1.00;;;1.00;;
595;SDS011;19946;49.306;11.350;2023-04-01T08:16:48;1.27;;;1.27;;
595;SDS011;19946;49.306;11.350;2023-04-01T08:19:59;1.00;;;1.00;;
595;SDS011;19946;49.306;11.350;2023-04-01T08:23:33;1.20;;;1.20;;
595;SDS011;19946;49.306;11.350;2023-04-01T08:26:41;1.10;;;1.10;;
595;SDS011;19946;49.306;11.350;2023-04-01T08:29:48;0.90;;;0.90;;
595;SDS011;19946;49.306;11.350;2023-04-01T08:36:23;1.20;;;1.20;;
595;SDS011;19946;49.306;11.350;2023-04-01T08:39:49;1.20;;;1.20;;
595;SDS011;19946;49.306;11.350;2023-04-01T08:50:18;1.20;;;1.20;;
595;SDS011;19946;49.306;11.350;2023-04-01T08:54:06;1.20;;;1.20;;
595;SDS011;19946;49.306;11.350;2023-04-01T09:07:54;1.00;;;1.00;;
595;SDS011;19946;49.306;11.350;2023-04-01T09:11:05;1.00;;;1.00;;
595;SDS011;19946;49.306;11.350;2023-04-01T09:17:51;0.90;;;0.90;;
595;SDS011;19946;49.306;11.350;2023-04-01T09:24:25;0.80;;;0.80;;
595;SDS011;19946;49.306;11.350;2023-04-01T09:27:43;0.80;;;0.80;;
595;SDS011;19946;49.306;11.350;2023-04-01T09:30:58;0.70;;;0.70;;
595;SDS011;19946;49.306;11.350;2023-04-01T09:41:25;1.00;;;1.00;;
595;SDS011;19946;49.306;11.350;2023-04-01T09:44:50;0.60;;;0.60;;
595;SDS011;19946;49.306;11.350;2023-04-01T09:48:05;0.90;;;0.90;;
595;SDS011;19946;49.306;11.350;2023-04-01T09:51:22;1.30;;;1.30;;
595;SDS011;19946;49.306;11.350;2023-04-01T10:05:40;0.80;;;0.80;;
595;SDS011;19946;49.306;11.350;2023-04-01T10:19:34;0.80;;;0.80;;
595;SDS011;19946;49.306;11.350;2023-04-01T10:22:55;0.80;;;0.80;;
595;SDS011;19946;49.306;11.350;2023-04-01T10:30:03;1.10;;;1.10;;
595;SDS011;19946;49.306;11.350;2023-04-01T10:33:34;1.97;;;1.97;;
595;SDS011;19946;49.306;11.350;2023-04-01T10:40:19;1.00;;;1.00;;
595;SDS011;19946;49.306;11.350;2023-04-01T10:47:39;1.80;;;1.80;;
595;SDS011;19946;49.306;11.350;2023-04-01T10:51:16;1.53;;;1.53;;
595;SDS011;19946;49.306;11.350;2023-04-01T10:55:14;0.90;;;0.90;;
595;SDS011;19946;49.306;11.350;2023-04-01T10:59:15;2.43;;;2.43;;
595;SDS011;19946;49.306;11.350;2023-04-01T11:10:36;1.40;;;1.40;;
595;SDS011;19946;49.306;11.350;2023-04-01T11:20:45;0.90;;;0.90;;
595;SDS011;19946;49.306;11.350;2023-04-01T11:24:13;0.80;;;0.80;;
595;SDS011;19946;49.306;11.350;2023-04-01T11:28:05;0.93;;;0.93;;
595;SDS011;19946;49.306;11.350;2023-04-01T11:34:35;0.60;;;0.60;;
595;SDS011;19946;49.306;11.350;2023-04-01T11:41:24;0.40;;;0.40;;
595;SDS011;19946;49.306;11.350;2023-04-01T11:45:26;0.30;;;0.30;;
595;SDS011;19946;49.306;11.350;2023-04-01T11:52:05;0.30;;;0.30;;
595;SDS011;19946;49.306;11.350;2023-04-01T11:58:56;0.50;;;0.50;;
595;SDS011;19946;49.306;11.350;2023-04-01T12:02:11;0.70;;;0.70;;
595;SDS011;19946;49.306;11.350;2023-04-01T12:05:37;0.80;;;0.80;;
595;SDS011;19946;49.306;11.350;2023-04-01T12:11:55;0.50;;;0.50;;
595;SDS011;19946;49.306;11.350;2023-04-01T12:15:01;0.70;;;0.70;;
595;SDS011;19946;49.306;11.350;2023-04-01T12:18:38;0.60;;;0.60;;
595;SDS011;19946;49.306;11.350;2023-04-01T12:31:24;0.40;;;0.40;;
595;SDS011;19946;49.306;11.350;2023-04-01T12:44:52;0.40;;;0.40;;
595;SDS011;19946;49.306;11.350;2023-04-01T12:48:16;0.50;;;0.50;;
595;SDS011;19946;49.306;11.350;2023-04-01T12:58:29;0.30;;;0.30;;
595;SDS011;19946;49.306;11.350;2023-04-01T13:02:00;0.30;;;0.30;;
595;SDS011;19946;49.306;11.350;2023-04-01T13:05:23;0.30;;;0.30;;
595;SDS011;19946;49.306;11.350;2023-04-01T13:15:44;0.40;;;0.40;;
595;SDS011;19946;49.306;11.350;2023-04-01T13:22:26;0.30;;;0.30;;
595;SDS011;19946;49.306;11.350;2023-04-01T13:29:02;0.20;;;0.20;;
595;SDS011;19946;49.306;11.350;2023-04-01T13:32:32;0.20;;;0.20;;
595;SDS011;19946;49.306;11.350;2023-04-01T13:35:58;0.30;;;0.30;;
595;SDS011;19946;49.306;11.350;2023-04-01T13:42:31;0.20;;;0.20;;
595;SDS011;19946;49.306;11.350;2023-04-01T13:52:41;0.30;;;0.30;;
595;SDS011;19946;49.306;11.350;2023-04-01T13:59:47;0.20;;;0.20;;
595;SDS011;19946;49.306;11.350;2023-04-01T14:06:34;0.30;;;0.30;;
595;SDS011;19946;49.306;11.350;2023-04-01T14:09:45;0.20;;;0.20;;
595;SDS011;19946;49.306;11.350;2023-04-01T14:20:00;0.30;;;0.30;;
595;SDS011;19946;49.306;11.350;2023-04-01T14:29:38;0.30;;;0.30;;
595;SDS011;19946;49.306;11.350;2023-04-01T14:32:56;0.37;;;0.37;;
595;SDS011;19946;49.306;11.350;2023-04-01T14:49:24;0.40;;;0.40;;
595;SDS011;19946;49.306;11.350;2023-04-01T14:52:35;0.40;;;0.40;;
595;SDS011;19946;49.306;11.350;2023-04-01T14:58:43;0.30;;;0.30;;
595;SDS011;19946;49.306;11.350;2023-04-01T15:01:47;0.50;;;0.50;;
595;SDS011;19946;49.306;11.350;2023-04-01T15:05:05;0.37;;;0.37;;
595;SDS011;19946;49.306;11.350;2023-04-01T15:08:27;0.30;;;0.30;;
595;SDS011;19946;49.306;11.350;2023-04-01T15:18:45;0.30;;;0.30;;
595;SDS011;19946;49.306;11.350;2023-04-01T15:22:06;0.30;;;0.30;;
595;SDS011;19946;49.306;11.350;2023-04-01T15:31:49;0.40;;;0.40;;
595;SDS011;19946;49.306;11.350;2023-04-01T15:35:06;0.40;;;0.40;;
595;SDS011;19946;49.306;11.350;2023-04-01T15:41:45;0.40;;;0.40;;
595;SDS011;19946;49.306;11.350;2023-04-01T15:45:12;0.40;;;0.40;;
595;SDS011;19946;49.306;11.350;2023-04-01T15:48:23;0.43;;;0.43;;
595;SDS011;19946;49.306;11.350;2023-04-01T15:51:41;0.30;;;0.30;;
595;SDS011;19946;49.306;11.350;2023-04-01T16:01:50;0.50;;;0.50;;
595;SDS011;19946;49.306;11.350;2023-04-01T16:05:23;0.50;;;0.50;;
595;SDS011;19946;49.306;11.350;2023-04-01T16:11:53;0.50;;;0.50;;
595;SDS011;19946;49.306;11.350;2023-04-01T16:22:06;0.93;;;0.93;;
595;SDS011;19946;49.306;11.350;2023-04-01T16:35:32;0.70;;;0.70;;
595;SDS011;19946;49.306;11.350;2023-04-01T16:38:45;0.50;;;0.50;;
595;SDS011;19946;49.306;11.350;2023-04-01T16:45:15;1.30;;;1.30;;
595;SDS011;19946;49.306;11.350;2023-04-01T16:48:18;1.00;;;1.00;;
595;SDS011;19946;49.306;11.350;2023-04-01T16:51:22;0.83;;;0.83;;
595;SDS011;19946;49.306;11.350;2023-04-01T16:54:28;0.50;;;0.50;;
595;SDS011;19946;49.306;11.350;2023-04-01T16:57:37;0.80;;;0.80;;
595;SDS011;19946;49.306;11.350;2023-04-01T17:00:48;1.40;;;1.40;;
595;SDS011;19946;49.306;11.350;2023-04-01T17:03:51;1.50;;;1.50;;
595;SDS011;19946;49.306;11.350;2023-04-01T17:07:01;1.10;;;1.10;;
595;SDS011;19946;49.306;11.350;2023-04-01T17:10:22;1.10;;;1.10;;
595;SDS011;19946;49.306;11.350;2023-04-01T17:17:15;0.90;;;0.90;;
595;SDS011;19946;49.306;11.350;2023-04-01T17:20:27;0.80;;;0.80;;
595;SDS011;19946;49.306;11.350;2023-04-01T17:23:38;0.90;;;0.90;;
595;SDS011;19946;49.306;11.350;2023-04-01T17:26:50;1.20;;;1.20;;
595;SDS011;19946;49.306;11.350;2023-04-01T17:30:11;0.80;;;0.80;;
595;SDS011;19946;49.306;11.350;2023-04-01T17:54:24;1.10;;;1.10;;
595;SDS011;19946;49.306;11.350;2023-04-01T18:07:33;0.70;;;0.70;;
595;SDS011;19946;49.306;11.350;2023-04-01T18:17:21;0.50;;;0.50;;
595;SDS011;19946;49.306;11.350;2023-04-01T18:30:32;0.83;;;0.83;;
595;SDS011;19946;49.306;11.350;2023-04-01T18:37:16;0.80;;;0.80;;
595;SDS011;19946;49.306;11.350;2023-04-01T18:40:30;0.90;;;0.90;;
595;SDS011;19946;49.306;11.350;2023-04-01T18:50:50;0.60;;;0.60;;
595;SDS011;19946;49.306;11.350;2023-04-01T18:53:58;0.60;;;0.60;;
595;SDS011;19946;49.306;11.350;2023-04-01T18:57:14;0.70;;;0.70;;
595;SDS011;19946;49.306;11.350;2023-04-01T19:00:25;0.80;;;0.80;;
595;SDS011;19946;49.306;11.350;2023-04-01T19:03:31;0.80;;;0.80;;
595;SDS011;19946;49.306;11.350;2023-04-01T19:06:48;1.40;;;1.40;;
595;SDS011;19946;49.306;11.350;2023-04-01T19:09:51;1.50;;;1.50;;
595;SDS011;19946;49.306;11.350;2023-04-01T19:16:10;1.70;;;1.70;;
595;SDS011;19946;49.306;11.350;2023-04-01T19:19:21;1.90;;;1.90;;
595;SDS011;19946;49.306;11.350;2023-04-01T19:22:36;1.87;;;1.87;;
595;SDS011;19946;49.306;11.350;2023-04-01T19:25:59;1.30;;;1.30;;
595;SDS011;19946;49.306;11.350;2023-04-01T19:32:32;1.10;;;1.10;;
595;SDS011;19946;49.306;11.350;2023-04-01T19:35:52;0.90;;;0.90;;
595;SDS011;19946;49.306;11.350;2023-04-01T19:39:06;1.60;;;1.60;;
595;SDS011;19946;49.306;11.350;2023-04-01T19:42:14;0.70;;;0.70;;
595;SDS011;19946;49.306;11.350;2023-04-01T19:49:12;0.90;;;0.90;;
595;SDS011;19946;49.306;11.350;2023-04-01T19:52:37;0.83;;;0.83;;
595;SDS011;19946;49.306;11.350;2023-04-01T19:55:53;0.90;;;0.90;;
595;SDS011;19946;49.306;11.350;2023-04-01T19:59:19;1.40;;;1.40;;
595;SDS011;19946;49.306;11.350;2023-04-01T20:02:27;1.20;;;1.20;;
595;SDS011;19946;49.306;11.350;2023-04-01T20:08:37;1.50;;;1.50;;
595;SDS011;19946;49.306;11.350;2023-04-01T20:14:59;1.30;;;1.30;;
595;SDS011;19946;49.306;11.350;2023-04-01T20:18:05;1.40;;;1.40;;
595;SDS011;19946;49.306;11.350;2023-04-01T20:21:43;1.60;;;1.60;;
595;SDS011;19946;49.306;11.350;2023-04-01T20:24:47;1.70;;;1.70;;
595;SDS011;19946;49.306;11.350;2023-04-01T20:27:50;0.70;;;0.70;;
595;SDS011;19946;49.306;11.350;2023-04-01T20:41:39;1.60;;;1.60;;
595;SDS011;19946;49.306;11.350;2023-04-01T20:51:05;1.50;;;1.50;;
595;SDS011;19946;49.306;11.350;2023-04-01T20:57:34;1.80;;;1.80;;
595;SDS011;19946;49.306;11.350;2023-04-01T21:01:10;2.30;;;2.30;;
595;SDS011;19946;49.306;11.350;2023-04-01T21:08:08;2.10;;;2.10;;
595;SDS011;19946;49.306;11.350;2023-04-01T21:11:20;3.57;;;3.57;;
595;SDS011;19946;49.306;11.350;2023-04-01T21:17:57;2.60;;;2.60;;
595;SDS011;19946;49.306;11.350;2023-04-01T21:24:46;2.50;;;2.50;;
595;SDS011;19946;49.306;11.350;2023-04-01T21:27:55;1.50;;;1.50;;
595;SDS011;19946;49.306;11.350;2023-04-01T21:31:36;1.70;;;1.70;;
595;SDS011;19946;49.306;11.350;2023-04-01T21:34:49;0.80;;;0.80;;
595;SDS011;19946;49.306;11.350;2023-04-01T21:37:58;1.23;;;1.23;;
595;SDS011;19946;49.306;11.350;2023-04-01T21:48:19;1.30;;;1.30;;
595;SDS011;19946;49.306;11.350;2023-04-01T21:54:45;1.20;;;1.20;;
595;SDS011;19946;49.306;11.350;2023-04-01T22:04:42;0.80;;;0.80;;
595;SDS011;19946;49.306;11.350;2023-04-01T22:11:04;1.20;;;1.20;;
595;SDS011;19946;49.306;11.350;2023-04-01T22:14:33;1.60;;;1.60;;
595;SDS011;19946;49.306;11.350;2023-04-01T22:17:50;1.20;;;1.20;;
595;SDS011;19946;49.306;11.350;2023-04-01T22:21:10;1.70;;;1.70;;
595;SDS011;19946;49.306;11.350;2023-04-01T22:31:09;1.10;;;1.10;;
595;SDS011;19946;49.306;11.350;2023-04-01T22:34:20;1.20;;;1.20;;
595;SDS011;19946;49.306;11.350;2023-04-01T22:41:14;1.90;;;1.90;;
595;SDS011;19946;49.306;11.350;2023-04-01T22:48:13;2.63;;;2.63;;
595;SDS011;19946;49.306;11.350;2023-04-01T22:55:13;2.20;;;2.20;;
595;SDS011;19946;49.306;11.350;2023-04-01T22:58:18;3.00;;;3.00;;
595;SDS011;19946;49.306;11.350;2023-04-01T23:01:28;2.00;;;2.00;;
595;SDS011;19946;49.306;11.350;2023-04-01T23:04:35;2.90;;;2.90;;
595;SDS011;19946;49.306;11.350;2023-04-01T23:11:15;2.60;;;2.60;;
595;SDS011;19946;49.306;11.350;2023-04-01T23:17:38;3.10;;;3.10;;
595;SDS011;19946;49.306;11.350;2023-04-01T23:21:06;3.03;;;3.03;;
595;SDS011;19946;49.306;11.350;2023-04-01T23:24:25;3.50;;;3.50;;
595;SDS011;19946;49.306;11.350;2023-04-01T23:27:38;4.10;;;4.10;;
595;SDS011;19946;49.306;11.350;2023-04-01T23:30:49;5.40;;;5.40;;
595;SDS011;19946;49.306;11.350;2023-04-01T23:33:58;3.30;;;3.30;;
595;SDS011;19946;49.306;11.350;2023-04-01T23:37:19;4.10;;;4.10;;
595;SDS011;19946;49.306;11.350;2023-04-01T23:40:20;5.07;;;5.07;;
595;SDS011;19946;49.306;11.350;2023-04-01T23:43:35;2.80;;;2.80;;
595;SDS011;19946;49.306;11.350;2023-04-01T23:46:39;2.90;;;2.90;;
595;SDS011;19946;49.306;11.350;2023-04-01T23:49:44;2.10;;;2.10;;
595;SDS011;19946;49.306;11.350;2023-04-01T23:52:59;1.97;;;1.97;;
595;SDS011;19946;49.306;11.350;2023-04-01T23:56:01;1.73;;;1.73;;
595;SDS011;19946;49.306;11.350;2023-04-01T23:59:02;2.20;;;2.20;;
